sensor_id;sensor_type;location;lat;lon;timestamp;P1;durP1;ratioP1;P2;durP2;ratioP2
20794;SDS011;28087;-33.874;151.240;2023-01-04T00:01:39;9.75;;;2.05;;
20794;SDS011;28087;-33.874;151.240;2023-01-04T00:04:16;10.25;;;2.28;;
20794;SDS011;28087;-33.874;151.240;2023-01-04T00:06:51;10.95;;;2.20;;
20794;SDS011;28087;-33.874;151.240;2023-01-04T00:09:27;13.23;;;2.30;;
20794;SDS011;28087;-33.874;151.240;2023-01-04T00:12:05;12.10;;;2.38;;
20794;SDS011;28087;-33.874;151.240;2023-01-04T00:14:42;12.25;;;2.38;;
20794;SDS011;28087;-33.874;151.240;2023-01-04T00:17:18;13.50;;;2.45;;
20794;SDS011;28087;-33.874;151.240;2023-01-04T00:19:54;10.18;;;2.10;;
20794;SDS011;28087;-33.874;151.240;2023-01-04T00:22:32;11.15;;;2.70;;
20794;SDS011;28087;-33.874;151.240;2023-01-04T00:25:08;11.20;;;2.15;;
20794;SDS011;28087;-33.874;151.240;2023-01-04T00:27:46;10.93;;;2.15;;
20794;SDS011;28087;-33.874;151.240;2023-01-04T00:30:26;11.70;;;2.53;;
20794;SDS011;28087;-33.874;151.240;2023-01-04T00:33:01;9.30;;;2.08;;
20794;SDS011;28087;-33.874;151.240;2023-01-04T00:35:38;18.40;;;2.50;;
20794;SDS011;28087;-33.874;151.240;2023-01-04T00:38:15;11.43;;;2.65;;
20794;SDS011;28087;-33.874;151.240;2023-01-04T00:40:51;11.30;;;2.17;;
20794;SDS011;28087;-33.874;151.240;2023-01-04T00:43:31;13.00;;;2.17;;
20794;SDS011;28087;-33.874;151.240;2023-01-04T00:46:07;11.43;;;2.33;;
20794;SDS011;28087;-33.874;151.240;2023-01-04T00:48:41;11.02;;;2.20;;
20794;SDS011;28087;-33.874;151.240;2023-01-04T00:51:17;10.43;;;2.42;;
20794;SDS011;28087;-33.874;151.240;2023-01-04T00:53:52;9.50;;;2.40;;
20794;SDS011;28087;-33.874;151.240;2023-01-04T00:56:27;9.85;;;2.35;;
20794;SDS011;28087;-33.874;151.240;2023-01-04T00:59:04;11.00;;;2.42;;
20794;SDS011;28087;-33.874;151.240;2023-01-04T01:01:41;13.52;;;2.60;;
20794;SDS011;28087;-33.874;151.240;2023-01-04T01:04:18;11.60;;;2.55;;
20794;SDS011;28087;-33.874;151.240;2023-01-04T01:06:55;12.73;;;2.63;;
20794;SDS011;28087;-33.874;151.240;2023-01-04T01:09:30;11.10;;;2.42;;
20794;SDS011;28087;-33.874;151.240;2023-01-04T01:12:06;11.77;;;2.60;;
20794;SDS011;28087;-33.874;151.240;2023-01-04T01:14:45;16.10;;;2.80;;
20794;SDS011;28087;-33.874;151.240;2023-01-04T01:17:28;13.50;;;2.53;;
20794;SDS011;28087;-33.874;151.240;2023-01-04T01:20:04;12.07;;;2.50;;
20794;SDS011;28087;-33.874;151.240;2023-01-04T01:22:41;12.63;;;2.50;;
20794;SDS011;28087;-33.874;151.240;2023-01-04T01:25:16;13.55;;;2.50;;
20794;SDS011;28087;-33.874;151.240;2023-01-04T01:27:52;10.10;;;2.50;;
20794;SDS011;28087;-33.874;151.240;2023-01-04T01:30:30;11.70;;;2.45;;
20794;SDS011;28087;-33.874;151.240;2023-01-04T01:33:06;10.82;;;2.50;;
20794;SDS011;28087;-33.874;151.240;2023-01-04T01:35:42;9.98;;;2.50;;
20794;SDS011;28087;-33.874;151.240;2023-01-04T01:38:18;15.48;;;2.67;;
20794;SDS011;28087;-33.874;151.240;2023-01-04T01:40:54;10.85;;;2.33;;
20794;SDS011;28087;-33.874;151.240;2023-01-04T01:43:51;8.88;;;2.20;;
20794;SDS011;28087;-33.874;151.240;2023-01-04T01:46:30;12.40;;;2.28;;
20794;SDS011;28087;-33.874;151.240;2023-01-04T01:49:11;11.85;;;2.55;;
20794;SDS011;28087;-33.874;151.240;2023-01-04T01:51:52;13.45;;;2.10;;
20794;SDS011;28087;-33.874;151.240;2023-01-04T01:54:33;11.32;;;2.50;;
20794;SDS011;28087;-33.874;151.240;2023-01-04T01:57:14;15.60;;;2.60;;
20794;SDS011;28087;-33.874;151.240;2023-01-04T01:59:53;11.27;;;2.40;;
20794;SDS011;28087;-33.874;151.240;2023-01-04T02:02:52;11.95;;;2.60;;
20794;SDS011;28087;-33.874;151.240;2023-01-04T02:05:35;8.82;;;2.13;;
20794;SDS011;28087;-33.874;151.240;2023-01-04T02:08:11;10.18;;;2.30;;
20794;SDS011;28087;-33.874;151.240;2023-01-04T02:10:48;10.90;;;2.50;;
20794;SDS011;28087;-33.874;151.240;2023-01-04T02:13:25;13.07;;;2.65;;
20794;SDS011;28087;-33.874;151.240;2023-01-04T02:16:24;10.77;;;3.00;;
20794;SDS011;28087;-33.874;151.240;2023-01-04T02:19:10;16.27;;;3.55;;
20794;SDS011;28087;-33.874;151.240;2023-01-04T02:21:54;15.27;;;3.40;;
20794;SDS011;28087;-33.874;151.240;2023-01-04T02:24:38;12.52;;;3.38;;
20794;SDS011;28087;-33.874;151.240;2023-01-04T02:27:22;12.45;;;3.05;;
20794;SDS011;28087;-33.874;151.240;2023-01-04T02:30:13;13.63;;;3.28;;
20794;SDS011;28087;-33.874;151.240;2023-01-04T02:32:58;12.05;;;3.28;;
20794;SDS011;28087;-33.874;151.240;2023-01-04T02:35:37;14.15;;;3.30;;
20794;SDS011;28087;-33.874;151.240;2023-01-04T02:38:17;17.08;;;3.72;;
20794;SDS011;28087;-33.874;151.240;2023-01-04T02:40:57;11.10;;;2.95;;
20794;SDS011;28087;-33.874;151.240;2023-01-04T02:43:37;19.30;;;3.95;;
20794;SDS011;28087;-33.874;151.240;2023-01-04T02:46:31;15.60;;;3.40;;
20794;SDS011;28087;-33.874;151.240;2023-01-04T02:49:10;15.52;;;3.40;;
20794;SDS011;28087;-33.874;151.240;2023-01-04T02:52:00;20.23;;;2.90;;
20794;SDS011;28087;-33.874;151.240;2023-01-04T02:54:37;17.67;;;2.92;;
20794;SDS011;28087;-33.874;151.240;2023-01-04T02:57:19;13.00;;;3.03;;
20794;SDS011;28087;-33.874;151.240;2023-01-04T03:00:17;13.38;;;3.45;;
20794;SDS011;28087;-33.874;151.240;2023-01-04T03:03:28;16.75;;;3.13;;
20794;SDS011;28087;-33.874;151.240;2023-01-04T03:06:35;13.43;;;3.13;;
20794;SDS011;28087;-33.874;151.240;2023-01-04T03:09:17;13.95;;;3.30;;
20794;SDS011;28087;-33.874;151.240;2023-01-04T03:11:55;15.32;;;3.22;;
20794;SDS011;28087;-33.874;151.240;2023-01-04T03:14:50;12.80;;;2.97;;
20794;SDS011;28087;-33.874;151.240;2023-01-04T03:17:31;13.70;;;2.70;;
20794;SDS011;28087;-33.874;151.240;2023-01-04T03:20:10;15.40;;;2.92;;
20794;SDS011;28087;-33.874;151.240;2023-01-04T03:22:52;12.90;;;2.10;;
20794;SDS011;28087;-33.874;151.240;2023-01-04T03:25:47;14.82;;;2.65;;
20794;SDS011;28087;-33.874;151.240;2023-01-04T03:28:44;14.43;;;2.70;;
20794;SDS011;28087;-33.874;151.240;2023-01-04T03:31:37;12.57;;;2.20;;
20794;SDS011;28087;-33.874;151.240;2023-01-04T03:34:33;16.20;;;2.80;;
20794;SDS011;28087;-33.874;151.240;2023-01-04T03:37:26;14.70;;;2.47;;
20794;SDS011;28087;-33.874;151.240;2023-01-04T03:40:21;11.38;;;2.20;;
20794;SDS011;28087;-33.874;151.240;2023-01-04T03:43:17;11.43;;;2.45;;
20794;SDS011;28087;-33.874;151.240;2023-01-04T03:46:11;12.68;;;2.47;;
20794;SDS011;28087;-33.874;151.240;2023-01-04T03:49:11;16.88;;;3.38;;
20794;SDS011;28087;-33.874;151.240;2023-01-04T03:51:51;12.98;;;2.58;;
20794;SDS011;28087;-33.874;151.240;2023-01-04T03:54:30;12.73;;;2.85;;
20794;SDS011;28087;-33.874;151.240;2023-01-04T03:57:11;19.98;;;3.95;;
20794;SDS011;28087;-33.874;151.240;2023-01-04T03:59:48;15.38;;;3.35;;
20794;SDS011;28087;-33.874;151.240;2023-01-04T04:02:28;18.05;;;4.38;;
20794;SDS011;28087;-33.874;151.240;2023-01-04T04:05:06;20.17;;;4.45;;
20794;SDS011;28087;-33.874;151.240;2023-01-04T04:08:02;18.40;;;4.50;;
20794;SDS011;28087;-33.874;151.240;2023-01-04T04:10:55;24.00;;;5.70;;
20794;SDS011;28087;-33.874;151.240;2023-01-04T04:13:56;28.50;;;6.55;;
20794;SDS011;28087;-33.874;151.240;2023-01-04T04:16:32;27.45;;;6.35;;
20794;SDS011;28087;-33.874;151.240;2023-01-04T04:19:07;24.50;;;5.90;;
20794;SDS011;28087;-33.874;151.240;2023-01-04T04:21:43;18.25;;;4.70;;
20794;SDS011;28087;-33.874;151.240;2023-01-04T04:24:21;22.17;;;4.53;;
20794;SDS011;28087;-33.874;151.240;2023-01-04T04:26:57;17.33;;;3.95;;
20794;SDS011;28087;-33.874;151.240;2023-01-04T04:29:36;10.88;;;3.08;;
20794;SDS011;28087;-33.874;151.240;2023-01-04T04:32:11;15.90;;;3.88;;
20794;SDS011;28087;-33.874;151.240;2023-01-04T04:34:48;17.63;;;3.95;;
20794;SDS011;28087;-33.874;151.240;2023-01-04T04:37:23;12.23;;;3.67;;
20794;SDS011;28087;-33.874;151.240;2023-01-04T04:40:01;17.20;;;3.88;;
20794;SDS011;28087;-33.874;151.240;2023-01-04T04:42:38;17.58;;;3.70;;
20794;SDS011;28087;-33.874;151.240;2023-01-04T04:45:15;14.75;;;3.63;;
20794;SDS011;28087;-33.874;151.240;2023-01-04T04:47:51;18.75;;;4.40;;
20794;SDS011;28087;-33.874;151.240;2023-01-04T04:50:26;16.63;;;3.83;;
20794;SDS011;28087;-33.874;151.240;2023-01-04T04:53:02;15.52;;;3.38;;
20794;SDS011;28087;-33.874;151.240;2023-01-04T04:55:38;17.25;;;3.97;;
20794;SDS011;28087;-33.874;151.240;2023-01-04T04:58:14;16.65;;;3.85;;
20794;SDS011;28087;-33.874;151.240;2023-01-04T05:00:52;12.55;;;3.60;;
20794;SDS011;28087;-33.874;151.240;2023-01-04T05:03:28;12.70;;;3.58;;
20794;SDS011;28087;-33.874;151.240;2023-01-04T05:06:05;12.43;;;3.53;;
20794;SDS011;28087;-33.874;151.240;2023-01-04T05:08:40;12.93;;;3.17;;
20794;SDS011;28087;-33.874;151.240;2023-01-04T05:11:16;11.55;;;2.88;;
20794;SDS011;28087;-33.874;151.240;2023-01-04T05:14:12;13.43;;;3.50;;
20794;SDS011;28087;-33.874;151.240;2023-01-04T05:16:50;11.98;;;3.13;;
20794;SDS011;28087;-33.874;151.240;2023-01-04T05:19:26;9.88;;;2.80;;
20794;SDS011;28087;-33.874;151.240;2023-01-04T05:22:02;12.00;;;2.92;;
20794;SDS011;28087;-33.874;151.240;2023-01-04T05:24:38;11.00;;;2.63;;
20794;SDS011;28087;-33.874;151.240;2023-01-04T05:27:14;11.75;;;3.10;;
20794;SDS011;28087;-33.874;151.240;2023-01-04T05:29:50;13.35;;;3.45;;
20794;SDS011;28087;-33.874;151.240;2023-01-04T05:32:43;9.80;;;2.63;;
20794;SDS011;28087;-33.874;151.240;2023-01-04T05:35:19;11.77;;;3.22;;
20794;SDS011;28087;-33.874;151.240;2023-01-04T05:37:56;11.82;;;2.83;;
20794;SDS011;28087;-33.874;151.240;2023-01-04T05:40:31;10.55;;;2.45;;
20794;SDS011;28087;-33.874;151.240;2023-01-04T05:43:07;10.77;;;2.78;;
20794;SDS011;28087;-33.874;151.240;2023-01-04T05:45:46;9.38;;;2.33;;
20794;SDS011;28087;-33.874;151.240;2023-01-04T05:48:26;8.63;;;2.25;;
20794;SDS011;28087;-33.874;151.240;2023-01-04T05:51:02;8.15;;;2.08;;
20794;SDS011;28087;-33.874;151.240;2023-01-04T05:53:37;8.75;;;2.08;;
20794;SDS011;28087;-33.874;151.240;2023-01-04T05:56:13;8.85;;;2.20;;
20794;SDS011;28087;-33.874;151.240;2023-01-04T05:58:49;7.93;;;1.80;;
20794;SDS011;28087;-33.874;151.240;2023-01-04T06:01:25;6.03;;;1.65;;
20794;SDS011;28087;-33.874;151.240;2023-01-04T06:04:06;9.13;;;1.80;;
20794;SDS011;28087;-33.874;151.240;2023-01-04T06:06:42;9.43;;;2.42;;
20794;SDS011;28087;-33.874;151.240;2023-01-04T06:09:19;10.48;;;2.22;;
20794;SDS011;28087;-33.874;151.240;2023-01-04T06:11:54;7.90;;;2.00;;
20794;SDS011;28087;-33.874;151.240;2023-01-04T06:14:30;9.18;;;1.80;;
20794;SDS011;28087;-33.874;151.240;2023-01-04T06:17:06;7.43;;;1.73;;
20794;SDS011;28087;-33.874;151.240;2023-01-04T06:19:46;7.70;;;1.70;;
20794;SDS011;28087;-33.874;151.240;2023-01-04T06:22:21;8.38;;;1.80;;
20794;SDS011;28087;-33.874;151.240;2023-01-04T06:24:57;5.88;;;1.40;;
20794;SDS011;28087;-33.874;151.240;2023-01-04T06:27:33;6.57;;;1.65;;
20794;SDS011;28087;-33.874;151.240;2023-01-04T06:30:09;5.22;;;1.40;;
20794;SDS011;28087;-33.874;151.240;2023-01-04T06:32:45;7.63;;;1.60;;
20794;SDS011;28087;-33.874;151.240;2023-01-04T06:35:23;6.88;;;1.30;;
20794;SDS011;28087;-33.874;151.240;2023-01-04T06:37:59;6.22;;;1.33;;
20794;SDS011;28087;-33.874;151.240;2023-01-04T06:40:35;8.18;;;1.23;;
20794;SDS011;28087;-33.874;151.240;2023-01-04T06:43:11;6.25;;;1.20;;
20794;SDS011;28087;-33.874;151.240;2023-01-04T06:45:47;6.47;;;1.30;;
20794;SDS011;28087;-33.874;151.240;2023-01-04T06:48:24;7.03;;;1.30;;
20794;SDS011;28087;-33.874;151.240;2023-01-04T06:51:03;8.70;;;1.30;;
20794;SDS011;28087;-33.874;151.240;2023-01-04T06:53:38;7.65;;;1.25;;
20794;SDS011;28087;-33.874;151.240;2023-01-04T06:56:15;5.78;;;1.25;;
20794;SDS011;28087;-33.874;151.240;2023-01-04T06:58:51;5.65;;;1.38;;
20794;SDS011;28087;-33.874;151.240;2023-01-04T07:01:27;5.15;;;1.15;;
20794;SDS011;28087;-33.874;151.240;2023-01-04T07:04:02;4.03;;;1.00;;
20794;SDS011;28087;-33.874;151.240;2023-01-04T07:06:41;9.18;;;1.25;;
20794;SDS011;28087;-33.874;151.240;2023-01-04T07:09:17;5.38;;;1.35;;
20794;SDS011;28087;-33.874;151.240;2023-01-04T07:11:54;4.65;;;1.15;;
20794;SDS011;28087;-33.874;151.240;2023-01-04T07:14:29;5.88;;;1.60;;
20794;SDS011;28087;-33.874;151.240;2023-01-04T07:17:05;7.97;;;1.50;;
20794;SDS011;28087;-33.874;151.240;2023-01-04T07:19:41;7.15;;;1.67;;
20794;SDS011;28087;-33.874;151.240;2023-01-04T07:22:19;10.10;;;2.28;;
20794;SDS011;28087;-33.874;151.240;2023-01-04T07:24:55;6.68;;;1.80;;
20794;SDS011;28087;-33.874;151.240;2023-01-04T07:27:31;8.75;;;2.10;;
20794;SDS011;28087;-33.874;151.240;2023-01-04T07:30:07;7.70;;;1.90;;
20794;SDS011;28087;-33.874;151.240;2023-01-04T07:32:45;7.00;;;2.17;;
20794;SDS011;28087;-33.874;151.240;2023-01-04T07:35:21;8.57;;;2.47;;
20794;SDS011;28087;-33.874;151.240;2023-01-04T07:38:00;12.88;;;2.95;;
20794;SDS011;28087;-33.874;151.240;2023-01-04T07:40:40;13.45;;;3.53;;
20794;SDS011;28087;-33.874;151.240;2023-01-04T07:43:24;10.20;;;2.35;;
20794;SDS011;28087;-33.874;151.240;2023-01-04T07:46:00;9.55;;;2.67;;
20794;SDS011;28087;-33.874;151.240;2023-01-04T07:48:36;7.50;;;2.10;;
20794;SDS011;28087;-33.874;151.240;2023-01-04T07:51:12;9.68;;;2.08;;
20794;SDS011;28087;-33.874;151.240;2023-01-04T07:53:51;8.65;;;2.10;;
20794;SDS011;28087;-33.874;151.240;2023-01-04T07:56:27;7.85;;;1.95;;
20794;SDS011;28087;-33.874;151.240;2023-01-04T07:59:05;10.88;;;2.03;;
20794;SDS011;28087;-33.874;151.240;2023-01-04T08:01:43;8.40;;;1.75;;
20794;SDS011;28087;-33.874;151.240;2023-01-04T08:04:21;11.00;;;2.00;;
20794;SDS011;28087;-33.874;151.240;2023-01-04T08:07:03;9.10;;;2.25;;
20794;SDS011;28087;-33.874;151.240;2023-01-04T08:09:42;9.88;;;2.25;;
20794;SDS011;28087;-33.874;151.240;2023-01-04T08:12:18;10.60;;;2.03;;
20794;SDS011;28087;-33.874;151.240;2023-01-04T08:14:54;9.27;;;2.20;;
20794;SDS011;28087;-33.874;151.240;2023-01-04T08:17:31;12.90;;;2.20;;
20794;SDS011;28087;-33.874;151.240;2023-01-04T08:20:15;11.05;;;2.10;;
20794;SDS011;28087;-33.874;151.240;2023-01-04T08:22:53;10.45;;;2.00;;
20794;SDS011;28087;-33.874;151.240;2023-01-04T08:25:35;10.15;;;1.95;;
20794;SDS011;28087;-33.874;151.240;2023-01-04T08:28:11;10.20;;;1.85;;
20794;SDS011;28087;-33.874;151.240;2023-01-04T08:30:47;12.48;;;2.10;;
20794;SDS011;28087;-33.874;151.240;2023-01-04T08:33:23;10.13;;;2.15;;
20794;SDS011;28087;-33.874;151.240;2023-01-04T08:36:06;7.90;;;1.77;;
20794;SDS011;28087;-33.874;151.240;2023-01-04T08:38:50;14.05;;;2.00;;
20794;SDS011;28087;-33.874;151.240;2023-01-04T08:41:32;10.82;;;2.03;;
20794;SDS011;28087;-33.874;151.240;2023-01-04T08:44:39;10.65;;;1.95;;
20794;SDS011;28087;-33.874;151.240;2023-01-04T08:47:15;9.68;;;1.88;;
20794;SDS011;28087;-33.874;151.240;2023-01-04T08:49:51;9.48;;;1.80;;
20794;SDS011;28087;-33.874;151.240;2023-01-04T08:52:27;8.45;;;1.65;;
20794;SDS011;28087;-33.874;151.240;2023-01-04T08:55:03;13.35;;;2.17;;
20794;SDS011;28087;-33.874;151.240;2023-01-04T08:57:45;14.20;;;2.03;;
20794;SDS011;28087;-33.874;151.240;2023-01-04T09:00:21;7.30;;;1.27;;
20794;SDS011;28087;-33.874;151.240;2023-01-04T09:02:56;7.35;;;1.55;;
20794;SDS011;28087;-33.874;151.240;2023-01-04T09:05:34;8.25;;;1.70;;
20794;SDS011;28087;-33.874;151.240;2023-01-04T09:08:10;8.68;;;1.80;;
20794;SDS011;28087;-33.874;151.240;2023-01-04T09:10:47;8.85;;;1.73;;
20794;SDS011;28087;-33.874;151.240;2023-01-04T09:13:28;7.68;;;1.48;;
20794;SDS011;28087;-33.874;151.240;2023-01-04T09:16:06;8.88;;;1.60;;
20794;SDS011;28087;-33.874;151.240;2023-01-04T09:18:46;11.02;;;1.70;;
20794;SDS011;28087;-33.874;151.240;2023-01-04T09:21:21;7.88;;;1.70;;
20794;SDS011;28087;-33.874;151.240;2023-01-04T09:23:58;7.20;;;1.42;;
20794;SDS011;28087;-33.874;151.240;2023-01-04T09:26:34;5.30;;;1.40;;
20794;SDS011;28087;-33.874;151.240;2023-01-04T09:29:12;6.43;;;1.27;;
20794;SDS011;28087;-33.874;151.240;2023-01-04T09:31:48;8.75;;;1.83;;
20794;SDS011;28087;-33.874;151.240;2023-01-04T09:34:24;5.70;;;1.48;;
20794;SDS011;28087;-33.874;151.240;2023-01-04T09:37:00;6.28;;;1.23;;
20794;SDS011;28087;-33.874;151.240;2023-01-04T09:39:35;6.88;;;1.58;;
20794;SDS011;28087;-33.874;151.240;2023-01-04T09:42:14;8.75;;;1.67;;
20794;SDS011;28087;-33.874;151.240;2023-01-04T09:45:03;6.60;;;1.50;;
20794;SDS011;28087;-33.874;151.240;2023-01-04T09:47:54;6.30;;;1.77;;
20794;SDS011;28087;-33.874;151.240;2023-01-04T09:50:34;10.80;;;1.70;;
20794;SDS011;28087;-33.874;151.240;2023-01-04T09:53:22;7.60;;;1.63;;
20794;SDS011;28087;-33.874;151.240;2023-01-04T09:56:02;9.55;;;2.00;;
20794;SDS011;28087;-33.874;151.240;2023-01-04T09:58:42;8.43;;;2.10;;
20794;SDS011;28087;-33.874;151.240;2023-01-04T10:01:21;10.20;;;2.00;;
20794;SDS011;28087;-33.874;151.240;2023-01-04T10:03:59;9.48;;;1.88;;
20794;SDS011;28087;-33.874;151.240;2023-01-04T10:06:39;9.85;;;1.92;;
20794;SDS011;28087;-33.874;151.240;2023-01-04T10:09:19;9.57;;;1.98;;
20794;SDS011;28087;-33.874;151.240;2023-01-04T10:12:08;8.65;;;1.75;;
20794;SDS011;28087;-33.874;151.240;2023-01-04T10:14:57;11.30;;;2.40;;
20794;SDS011;28087;-33.874;151.240;2023-01-04T10:17:55;9.68;;;1.80;;
20794;SDS011;28087;-33.874;151.240;2023-01-04T10:21:10;8.38;;;1.60;;
20794;SDS011;28087;-33.874;151.240;2023-01-04T10:24:05;7.15;;;1.70;;
20794;SDS011;28087;-33.874;151.240;2023-01-04T10:26:57;13.13;;;2.08;;
20794;SDS011;28087;-33.874;151.240;2023-01-04T10:29:43;9.65;;;1.60;;
20794;SDS011;28087;-33.874;151.240;2023-01-04T10:32:32;10.82;;;1.77;;
20794;SDS011;28087;-33.874;151.240;2023-01-04T10:35:18;9.82;;;1.83;;
20794;SDS011;28087;-33.874;151.240;2023-01-04T10:37:56;8.77;;;1.70;;
20794;SDS011;28087;-33.874;151.240;2023-01-04T10:40:34;7.93;;;1.73;;
20794;SDS011;28087;-33.874;151.240;2023-01-04T10:43:18;7.82;;;2.00;;
20794;SDS011;28087;-33.874;151.240;2023-01-04T10:46:24;9.77;;;1.80;;
20794;SDS011;28087;-33.874;151.240;2023-01-04T10:49:05;7.68;;;1.60;;
20794;SDS011;28087;-33.874;151.240;2023-01-04T10:51:47;8.93;;;1.63;;
20794;SDS011;28087;-33.874;151.240;2023-01-04T10:54:30;8.50;;;1.50;;
20794;SDS011;28087;-33.874;151.240;2023-01-04T10:57:15;9.05;;;1.48;;
20794;SDS011;28087;-33.874;151.240;2023-01-04T10:59:58;9.70;;;1.55;;
20794;SDS011;28087;-33.874;151.240;2023-01-04T11:02:38;8.13;;;1.35;;
20794;SDS011;28087;-33.874;151.240;2023-01-04T11:05:20;6.35;;;1.30;;
20794;SDS011;28087;-33.874;151.240;2023-01-04T11:08:01;7.25;;;1.42;;
20794;SDS011;28087;-33.874;151.240;2023-01-04T11:10:43;8.98;;;1.38;;
20794;SDS011;28087;-33.874;151.240;2023-01-04T11:13:21;8.88;;;1.50;;
20794;SDS011;28087;-33.874;151.240;2023-01-04T11:15:59;6.65;;;1.10;;
20794;SDS011;28087;-33.874;151.240;2023-01-04T11:18:36;6.93;;;1.25;;
20794;SDS011;28087;-33.874;151.240;2023-01-04T11:21:16;7.80;;;1.38;;
20794;SDS011;28087;-33.874;151.240;2023-01-04T11:23:57;10.88;;;1.50;;
20794;SDS011;28087;-33.874;151.240;2023-01-04T11:26:55;8.30;;;1.15;;
20794;SDS011;28087;-33.874;151.240;2023-01-04T11:29:36;9.80;;;1.33;;
20794;SDS011;28087;-33.874;151.240;2023-01-04T11:32:18;5.80;;;1.00;;
20794;SDS011;28087;-33.874;151.240;2023-01-04T11:35:04;7.07;;;1.38;;
20794;SDS011;28087;-33.874;151.240;2023-01-04T11:37:41;9.75;;;1.42;;
20794;SDS011;28087;-33.874;151.240;2023-01-04T11:40:23;11.05;;;1.50;;
20794;SDS011;28087;-33.874;151.240;2023-01-04T11:43:10;5.28;;;1.00;;
20794;SDS011;28087;-33.874;151.240;2023-01-04T11:45:55;6.97;;;1.00;;
20794;SDS011;28087;-33.874;151.240;2023-01-04T11:48:34;6.85;;;1.27;;
20794;SDS011;28087;-33.874;151.240;2023-01-04T11:51:15;9.20;;;1.60;;
20794;SDS011;28087;-33.874;151.240;2023-01-04T11:54:17;8.25;;;1.48;;
20794;SDS011;28087;-33.874;151.240;2023-01-04T11:56:58;8.82;;;1.75;;
20794;SDS011;28087;-33.874;151.240;2023-01-04T11:59:40;11.75;;;1.55;;
20794;SDS011;28087;-33.874;151.240;2023-01-04T12:02:18;10.02;;;1.75;;
20794;SDS011;28087;-33.874;151.240;2023-01-04T12:05:16;7.55;;;1.52;;
20794;SDS011;28087;-33.874;151.240;2023-01-04T12:07:58;9.88;;;1.50;;
20794;SDS011;28087;-33.874;151.240;2023-01-04T12:10:35;8.50;;;1.35;;
20794;SDS011;28087;-33.874;151.240;2023-01-04T12:13:12;9.73;;;1.40;;
20794;SDS011;28087;-33.874;151.240;2023-01-04T12:15:52;12.07;;;1.48;;
20794;SDS011;28087;-33.874;151.240;2023-01-04T12:18:34;9.50;;;1.30;;
20794;SDS011;28087;-33.874;151.240;2023-01-04T12:21:14;8.13;;;1.38;;
20794;SDS011;28087;-33.874;151.240;2023-01-04T12:23:52;7.00;;;1.30;;
20794;SDS011;28087;-33.874;151.240;2023-01-04T12:26:28;9.90;;;1.80;;
20794;SDS011;28087;-33.874;151.240;2023-01-04T12:47:54;8.50;;;1.83;;
20794;SDS011;28087;-33.874;151.240;2023-01-04T12:54:02;11.70;;;2.00;;
20794;SDS011;28087;-33.874;151.240;2023-01-04T13:00:03;10.75;;;1.85;;
20794;SDS011;28087;-33.874;151.240;2023-01-04T13:02:43;9.23;;;1.75;;
20794;SDS011;28087;-33.874;151.240;2023-01-04T13:05:31;11.57;;;2.28;;
20794;SDS011;28087;-33.874;151.240;2023-01-04T13:08:26;14.85;;;2.60;;
20794;SDS011;28087;-33.874;151.240;2023-01-04T13:11:03;13.63;;;2.40;;
20794;SDS011;28087;-33.874;151.240;2023-01-04T13:13:40;14.23;;;2.40;;
20794;SDS011;28087;-33.874;151.240;2023-01-04T13:16:24;14.57;;;2.90;;
20794;SDS011;28087;-33.874;151.240;2023-01-04T13:19:11;15.88;;;3.13;;
20794;SDS011;28087;-33.874;151.240;2023-01-04T13:21:51;14.75;;;2.85;;
20794;SDS011;28087;-33.874;151.240;2023-01-04T13:24:28;17.83;;;3.00;;
20794;SDS011;28087;-33.874;151.240;2023-01-04T13:27:05;20.77;;;3.20;;
20794;SDS011;28087;-33.874;151.240;2023-01-04T13:29:42;17.75;;;3.30;;
20794;SDS011;28087;-33.874;151.240;2023-01-04T13:32:20;19.98;;;3.28;;
20794;SDS011;28087;-33.874;151.240;2023-01-04T13:35:00;22.90;;;3.65;;
20794;SDS011;28087;-33.874;151.240;2023-01-04T13:37:43;20.35;;;3.40;;
20794;SDS011;28087;-33.874;151.240;2023-01-04T13:40:21;20.33;;;3.47;;
20794;SDS011;28087;-33.874;151.240;2023-01-04T13:43:06;21.08;;;3.65;;
20794;SDS011;28087;-33.874;151.240;2023-01-04T13:46:00;21.90;;;4.05;;
20794;SDS011;28087;-33.874;151.240;2023-01-04T13:48:48;27.75;;;4.68;;
20794;SDS011;28087;-33.874;151.240;2023-01-04T13:51:28;28.55;;;4.43;;
20794;SDS011;28087;-33.874;151.240;2023-01-04T13:54:16;23.30;;;4.10;;
20794;SDS011;28087;-33.874;151.240;2023-01-04T13:57:07;24.02;;;4.32;;
20794;SDS011;28087;-33.874;151.240;2023-01-04T13:59:43;25.67;;;4.63;;
20794;SDS011;28087;-33.874;151.240;2023-01-04T14:02:19;23.88;;;4.53;;
20794;SDS011;28087;-33.874;151.240;2023-01-04T14:04:57;21.45;;;3.97;;
20794;SDS011;28087;-33.874;151.240;2023-01-04T14:07:34;24.60;;;4.13;;
20794;SDS011;28087;-33.874;151.240;2023-01-04T14:10:12;24.20;;;4.45;;
20794;SDS011;28087;-33.874;151.240;2023-01-04T14:12:51;21.00;;;4.35;;
20794;SDS011;28087;-33.874;151.240;2023-01-04T14:15:28;27.60;;;5.10;;
20794;SDS011;28087;-33.874;151.240;2023-01-04T14:18:04;29.98;;;4.90;;
20794;SDS011;28087;-33.874;151.240;2023-01-04T14:20:58;24.13;;;4.47;;
20794;SDS011;28087;-33.874;151.240;2023-01-04T14:23:36;23.92;;;4.03;;
20794;SDS011;28087;-33.874;151.240;2023-01-04T14:29:21;30.58;;;5.18;;
20794;SDS011;28087;-33.874;151.240;2023-01-04T14:32:05;29.38;;;5.20;;
20794;SDS011;28087;-33.874;151.240;2023-01-04T14:34:42;24.20;;;4.65;;
20794;SDS011;28087;-33.874;151.240;2023-01-04T14:37:18;25.85;;;4.72;;
20794;SDS011;28087;-33.874;151.240;2023-01-04T14:39:57;27.27;;;4.90;;
20794;SDS011;28087;-33.874;151.240;2023-01-04T14:42:33;28.23;;;4.95;;
20794;SDS011;28087;-33.874;151.240;2023-01-04T14:45:11;24.65;;;4.68;;
20794;SDS011;28087;-33.874;151.240;2023-01-04T14:47:48;23.83;;;4.45;;
20794;SDS011;28087;-33.874;151.240;2023-01-04T14:50:24;29.67;;;5.65;;
20794;SDS011;28087;-33.874;151.240;2023-01-04T14:53:00;31.42;;;5.28;;
20794;SDS011;28087;-33.874;151.240;2023-01-04T14:55:38;30.02;;;5.28;;
20794;SDS011;28087;-33.874;151.240;2023-01-04T14:58:14;30.60;;;5.32;;
20794;SDS011;28087;-33.874;151.240;2023-01-04T15:00:49;34.30;;;5.78;;
20794;SDS011;28087;-33.874;151.240;2023-01-04T15:03:26;33.30;;;5.20;;
20794;SDS011;28087;-33.874;151.240;2023-01-04T15:06:02;29.52;;;5.45;;
20794;SDS011;28087;-33.874;151.240;2023-01-04T15:08:39;26.20;;;4.78;;
20794;SDS011;28087;-33.874;151.240;2023-01-04T15:11:17;32.95;;;5.25;;
20794;SDS011;28087;-33.874;151.240;2023-01-04T15:13:53;33.53;;;4.78;;
20794;SDS011;28087;-33.874;151.240;2023-01-04T15:16:28;26.65;;;4.90;;
20794;SDS011;28087;-33.874;151.240;2023-01-04T15:19:04;30.25;;;4.97;;
20794;SDS011;28087;-33.874;151.240;2023-01-04T15:21:41;27.13;;;4.57;;
20794;SDS011;28087;-33.874;151.240;2023-01-04T15:24:17;28.55;;;4.32;;
20794;SDS011;28087;-33.874;151.240;2023-01-04T15:26:55;25.45;;;4.35;;
20794;SDS011;28087;-33.874;151.240;2023-01-04T15:29:31;26.30;;;4.43;;
20794;SDS011;28087;-33.874;151.240;2023-01-04T15:32:07;22.13;;;4.20;;
20794;SDS011;28087;-33.874;151.240;2023-01-04T15:34:50;26.60;;;4.18;;
20794;SDS011;28087;-33.874;151.240;2023-01-04T15:37:26;21.77;;;3.90;;
20794;SDS011;28087;-33.874;151.240;2023-01-04T15:40:02;28.02;;;4.53;;
20794;SDS011;28087;-33.874;151.240;2023-01-04T15:42:40;29.17;;;4.28;;
20794;SDS011;28087;-33.874;151.240;2023-01-04T15:45:33;22.52;;;3.90;;